createdAt,value
2019-02-21T00:03:33.221Z,42.90
2019-02-21T00:07:38.561Z,43.53
2019-02-21T00:11:43.988Z,44.20
2019-02-21T00:15:49.426Z,43.60
2019-02-21T00:19:54.785Z,48.23
2019-02-21T00:24:00.203Z,51.27
2019-02-21T00:28:05.597Z,54.33
2019-02-21T00:32:11.055Z,64.13
2019-02-21T00:36:16.393Z,63.73
2019-02-21T00:40:22.107Z,57.00
2019-02-21T00:44:27.772Z,61.87
2019-02-21T00:48:33.231Z,59.03
2019-02-21T00:52:38.739Z,68.07
2019-02-21T00:56:44.048Z,73.57
2019-02-21T01:00:49.451Z,68.57
2019-02-21T01:04:54.957Z,74.47
2019-02-21T01:09:00.494Z,65.93
2019-02-21T01:13:05.931Z,73.03
2019-02-21T01:17:11.305Z,76.47
2019-02-21T01:21:16.552Z,65.10
2019-02-21T01:25:21.977Z,60.33
2019-02-21T01:29:27.691Z,66.53
2019-02-21T01:33:33.397Z,60.10
2019-02-21T01:37:38.900Z,63.03
2019-02-21T01:41:44.423Z,56.10
2019-02-21T01:45:49.756Z,53.13
2019-02-21T01:49:55.161Z,51.43
2019-02-21T01:54:00.566Z,57.53
2019-02-21T01:58:05.930Z,56.50
2019-02-21T02:02:11.798Z,62.07
2019-02-21T02:06:17.231Z,54.80
2019-02-21T02:10:22.624Z,64.07
2019-02-21T02:14:28.007Z,57.60
2019-02-21T02:18:33.411Z,50.47
2019-02-21T02:22:39.450Z,44.00
2019-02-21T02:26:44.931Z,47.37
2019-02-21T02:30:50.708Z,51.23
2019-02-21T02:34:56.058Z,57.83
2019-02-21T02:39:01.841Z,54.00
2019-02-21T02:43:07.321Z,61.53
2019-02-21T02:47:13.001Z,69.43
2019-02-21T02:51:18.362Z,64.63
2019-02-21T02:55:23.692Z,85.07
2019-02-21T02:59:40.367Z,79.20
2019-02-21T03:03:36.723Z,83.43
2019-02-21T03:07:42.013Z,83.70
2019-02-21T03:11:47.429Z,83.30
2019-02-21T03:15:52.857Z,80.47
2019-02-21T03:19:59.138Z,89.30
2019-02-21T03:24:05.040Z,87.67
2019-02-21T03:28:10.339Z,95.57
2019-02-21T03:32:15.668Z,86.57
2019-02-21T03:36:21.147Z,83.47
2019-02-21T03:40:26.574Z,87.17
2019-02-21T03:44:31.897Z,93.70
2019-02-21T03:48:37.505Z,88.10
2019-02-21T03:52:43.003Z,87.27
2019-02-21T03:56:48.796Z,95.17
2019-02-21T04:00:54.260Z,86.80
2019-02-21T04:04:59.678Z,91.03
2019-02-21T04:09:08.351Z,77.43
2019-02-21T04:13:15.285Z,70.97
2019-02-21T04:17:20.767Z,64.37
2019-02-21T04:21:26.728Z,57.67
2019-02-21T04:25:32.121Z,56.00
2019-02-21T04:29:37.875Z,56.23
2019-02-21T04:33:43.190Z,56.57
2019-02-21T04:37:48.640Z,52.87
2019-02-21T04:41:54.253Z,58.70
2019-02-21T04:46:00.000Z,53.10
2019-02-21T04:50:05.809Z,52.10
2019-02-21T04:54:11.225Z,54.10
2019-02-21T04:58:16.585Z,49.30
2019-02-21T05:02:29.095Z,52.30
2019-02-21T05:06:29.553Z,63.00
2019-02-21T05:10:34.993Z,58.47
2019-02-21T05:14:40.334Z,70.93
2019-02-21T05:18:46.175Z,63.03
2019-02-21T05:22:51.695Z,69.60
2019-02-21T05:27:03.730Z,71.40
2019-02-21T05:31:31.370Z,71.97
2019-02-21T05:36:14.222Z,76.47
2019-02-21T05:40:37.156Z,70.43
2019-02-21T05:44:47.430Z,76.60
2019-02-21T05:49:04.841Z,79.17
2019-02-21T05:53:33.747Z,83.80
2019-02-21T05:57:52.314Z,80.77
2019-02-21T06:02:23.076Z,86.70
2019-02-21T06:06:48.379Z,87.43
2019-02-21T06:11:11.770Z,89.30
2019-02-21T06:15:32.009Z,95.07
2019-02-21T06:19:50.138Z,103.17
2019-02-21T06:24:23.797Z,97.67
2019-02-21T06:28:32.570Z,103.20
2019-02-21T06:32:40.669Z,108.73
2019-02-21T06:36:45.945Z,104.60
2019-02-21T06:40:51.234Z,112.00
2019-02-21T06:44:56.570Z,107.10
2019-02-21T06:49:02.067Z,127.00
2019-02-21T06:53:07.504Z,136.53
2019-02-21T06:57:12.829Z,148.73
2019-02-21T07:01:26.451Z,141.10
2019-02-21T07:05:25.495Z,164.80
2019-02-21T07:09:30.990Z,179.17
2019-02-21T07:13:36.330Z,187.70
2019-02-21T07:17:49.195Z,201.53
2019-02-21T07:21:49.316Z,220.70
2019-02-21T07:26:06.957Z,254.37
2019-02-21T07:30:19.984Z,266.93
2019-02-21T07:34:19.897Z,277.03
2019-02-21T07:38:25.576Z,315.17
2019-02-21T07:42:31.294Z,302.00
2019-02-21T07:46:36.839Z,328.73
2019-02-21T07:50:42.320Z,309.43
2019-02-21T07:54:50.857Z,342.03
2019-02-21T07:58:57.577Z,334.47
2019-02-21T08:03:02.381Z,338.33
2019-02-21T08:07:07.727Z,358.53
2019-02-21T08:11:17.180Z,320.33
2019-02-21T08:15:22.612Z,355.03
2019-02-21T08:19:28.087Z,364.73
2019-02-21T08:23:33.580Z,353.00
2019-02-21T08:27:38.953Z,376.37
2019-02-21T08:31:44.283Z,363.07
2019-02-21T08:35:49.648Z,365.30
2019-02-21T08:39:55.143Z,329.47
2019-02-21T08:44:00.526Z,332.83
2019-02-21T08:48:06.063Z,286.73
2019-02-21T08:52:12.696Z,266.30
2019-02-21T08:56:18.563Z,216.60
2019-02-21T09:00:24.027Z,153.57
2019-02-21T09:04:29.840Z,128.77
2019-02-21T09:08:37.035Z,113.77
2019-02-21T09:12:47.917Z,97.20
2019-02-21T09:16:50.405Z,73.03
2019-02-21T09:20:55.899Z,71.80
2019-02-21T09:25:02.810Z,69.77
2019-02-21T09:29:08.542Z,71.50
2019-02-21T09:33:17.334Z,71.93
2019-02-21T09:37:21.163Z,69.70
2019-02-21T09:41:28.704Z,63.43
2019-02-21T09:45:34.020Z,62.43
2019-02-21T09:49:39.279Z,66.17
2019-02-21T09:53:44.720Z,55.97
2019-02-21T09:57:50.163Z,59.43
2019-02-21T10:01:57.560Z,60.73
2019-02-21T10:06:02.619Z,58.93
2019-02-21T10:10:11.669Z,65.37
2019-02-21T10:14:17.019Z,56.17
2019-02-21T10:18:22.376Z,57.07
2019-02-21T10:22:27.737Z,53.27
2019-02-21T10:26:33.205Z,56.07
2019-02-21T10:30:38.648Z,60.03
2019-02-21T10:34:44.103Z,62.43
2019-02-21T10:38:49.721Z,56.37
2019-02-21T10:42:55.511Z,51.67
2019-02-21T10:47:01.015Z,48.57
2019-02-21T10:51:06.482Z,51.73
2019-02-21T10:55:12.144Z,43.77
2019-02-21T10:59:17.679Z,59.10
2019-02-21T11:03:23.055Z,46.23
2019-02-21T11:07:28.499Z,45.10
2019-02-21T11:11:33.917Z,46.57
2019-02-21T11:15:41.934Z,41.97
2019-02-21T11:19:46.708Z,38.63
2019-02-21T11:23:52.230Z,38.23
2019-02-21T11:27:57.678Z,36.00
2019-02-21T11:32:03.073Z,35.63
2019-02-21T11:36:08.549Z,35.97
2019-02-21T11:40:16.132Z,37.17
2019-02-21T11:44:21.693Z,31.53
2019-02-21T11:48:26.954Z,34.60
2019-02-21T11:52:32.435Z,35.10
2019-02-21T11:56:37.846Z,35.23
2019-02-21T12:00:43.227Z,32.83
2019-02-21T12:04:48.594Z,31.90
2019-02-21T12:08:54.101Z,27.37
2019-02-21T12:12:59.539Z,26.17
2019-02-21T12:17:04.972Z,27.57
2019-02-21T12:21:11.686Z,26.67
2019-02-21T12:25:17.817Z,25.40
2019-02-21T12:29:23.418Z,24.77
2019-02-21T12:33:28.838Z,19.70
2019-02-21T12:37:34.294Z,24.80
2019-02-21T12:41:39.754Z,22.50
2019-02-21T12:45:45.406Z,25.17
2019-02-21T12:49:50.710Z,21.37
2019-02-21T12:53:56.217Z,23.23
2019-02-21T12:58:01.605Z,23.57
2019-02-21T13:02:07.051Z,24.13
2019-02-21T13:06:12.497Z,24.93
2019-02-21T13:10:19.111Z,24.97
2019-02-21T13:14:24.617Z,24.23
2019-02-21T13:18:30.178Z,24.40
2019-02-21T13:22:35.726Z,27.93
2019-02-21T13:26:41.102Z,25.50
2019-02-21T13:30:46.645Z,24.93
2019-02-21T13:34:52.147Z,25.37
2019-02-21T13:38:58.057Z,25.80
2019-02-21T13:43:03.326Z,23.60
2019-02-21T13:47:08.901Z,29.27
2019-02-21T13:51:14.434Z,35.43
2019-02-21T13:55:19.923Z,33.60
2019-02-21T13:59:25.247Z,27.33
2019-02-21T14:03:30.733Z,29.50
2019-02-21T14:07:37.353Z,30.50
2019-02-21T14:11:42.954Z,27.90
2019-02-21T14:15:48.388Z,32.80
2019-02-21T14:19:53.766Z,31.43
2019-02-21T14:23:59.184Z,30.90
2019-02-21T14:28:04.618Z,27.77
2019-02-21T14:32:10.406Z,27.70
2019-02-21T14:36:19.105Z,32.07
2019-02-21T14:40:23.372Z,30.37
2019-02-21T14:44:28.765Z,29.60
2019-02-21T14:48:34.646Z,28.43
2019-02-21T14:52:40.108Z,27.37
2019-02-21T14:56:45.536Z,29.43
2019-02-21T15:00:50.955Z,28.37
2019-02-21T15:04:56.403Z,35.53
2019-02-21T15:09:01.837Z,32.30
2019-02-21T15:13:07.274Z,28.80
2019-02-21T15:17:12.950Z,34.17
2019-02-21T15:21:18.436Z,31.40
2019-02-21T15:25:23.873Z,27.70
2019-02-21T15:29:29.327Z,28.30
2019-02-21T15:33:34.913Z,31.53
2019-02-21T15:37:40.365Z,31.40
2019-02-21T15:41:45.986Z,32.00
2019-02-21T15:45:51.260Z,30.87
2019-02-21T15:49:56.824Z,31.80
2019-02-21T15:54:02.316Z,32.37
2019-02-21T15:58:07.790Z,31.07
2019-02-21T16:02:13.159Z,31.17
2019-02-21T16:06:18.626Z,35.97
2019-02-21T16:10:24.364Z,34.10
2019-02-21T16:14:30.060Z,33.03
2019-02-21T16:18:35.505Z,42.57
2019-02-21T16:22:40.954Z,34.10
2019-02-21T16:26:46.357Z,35.17
2019-02-21T16:30:51.761Z,36.53
2019-02-21T16:34:57.284Z,30.40
2019-02-21T16:39:04.426Z,33.60
2019-02-21T16:43:10.231Z,29.83
2019-02-21T16:47:15.656Z,30.40
2019-02-21T16:51:22.245Z,33.47
2019-02-21T16:55:28.233Z,36.27
2019-02-21T16:59:33.552Z,32.67
2019-02-21T17:03:38.954Z,39.40
2019-02-21T17:07:44.743Z,37.53
2019-02-21T17:11:50.136Z,37.07
2019-02-21T17:15:55.612Z,38.23
2019-02-21T17:20:01.424Z,40.77
2019-02-21T17:24:06.919Z,39.90
2019-02-21T17:28:12.344Z,38.27
2019-02-21T17:32:17.699Z,37.80
2019-02-21T17:36:23.315Z,40.90
2019-02-21T17:40:28.767Z,37.17
2019-02-21T17:44:34.333Z,39.13
2019-02-21T17:48:39.786Z,40.43
2019-02-21T17:52:45.490Z,36.60
2019-02-21T17:56:51.095Z,38.70
2019-02-21T18:00:56.564Z,37.70
2019-02-21T18:05:02.052Z,38.37
2019-02-21T18:09:08.628Z,48.10
2019-02-21T18:13:14.046Z,42.43
2019-02-21T18:17:19.470Z,46.40
2019-02-21T18:21:24.940Z,45.93
2019-02-21T18:25:45.207Z,47.10
2019-02-21T18:29:51.022Z,36.23
2019-02-21T18:33:57.065Z,43.03
2019-02-21T18:38:02.506Z,44.17
2019-02-21T18:42:08.118Z,41.57
2019-02-21T18:46:13.879Z,54.83
2019-02-21T18:50:19.657Z,48.03
2019-02-21T18:54:25.408Z,45.43
2019-02-21T18:58:30.896Z,39.80
2019-02-21T19:02:36.379Z,39.67
2019-02-21T19:06:41.923Z,39.53
2019-02-21T19:10:47.781Z,43.67
2019-02-21T19:14:53.177Z,46.63
2019-02-21T19:18:58.850Z,47.07
2019-02-21T19:23:04.373Z,49.20
2019-02-21T19:27:09.955Z,54.83
2019-02-21T19:31:19.213Z,43.67
2019-02-21T19:35:24.927Z,45.20
2019-02-21T19:39:30.300Z,45.93
2019-02-21T19:43:35.822Z,56.10
2019-02-21T19:47:41.176Z,50.43
2019-02-21T19:51:46.797Z,51.80
2019-02-21T19:55:52.279Z,51.60
2019-02-21T19:59:57.821Z,49.67
2019-02-21T20:04:03.163Z,51.77
2019-02-21T20:08:09.182Z,48.50
2019-02-21T20:12:14.597Z,52.57
2019-02-21T20:16:20.256Z,48.47
2019-02-21T20:20:25.706Z,47.27
2019-02-21T20:24:31.371Z,55.03
2019-02-21T20:28:36.909Z,45.90
2019-02-21T20:32:42.413Z,52.07
2019-02-21T20:36:50.954Z,40.60
2019-02-21T20:40:54.973Z,42.73
2019-02-21T20:45:01.836Z,41.57
2019-02-21T20:49:07.199Z,40.30
2019-02-21T20:53:12.678Z,44.33
2019-02-21T20:57:21.046Z,48.57
2019-02-21T21:01:26.588Z,45.83
2019-02-21T21:05:32.211Z,46.90
2019-02-21T21:09:37.680Z,47.10
2019-02-21T21:13:44.129Z,59.10
2019-02-21T21:17:49.722Z,55.60
2019-02-21T21:21:55.036Z,46.37
2019-02-21T21:26:00.407Z,51.03
2019-02-21T21:30:06.527Z,55.73
2019-02-21T21:34:12.221Z,51.07
2019-02-21T21:38:24.194Z,54.63
2019-02-21T21:42:24.608Z,56.83
2019-02-21T21:46:30.069Z,57.17
2019-02-21T21:50:35.634Z,56.97
2019-02-21T21:54:41.170Z,72.97
2019-02-21T21:58:46.536Z,65.57
2019-02-21T22:02:51.936Z,69.80
2019-02-21T22:06:57.364Z,67.90
2019-02-21T22:11:02.795Z,64.70
2019-02-21T22:15:09.804Z,55.80
2019-02-21T22:19:15.185Z,65.80
2019-02-21T22:23:20.868Z,79.50
2019-02-21T22:27:26.591Z,82.50
2019-02-21T22:31:31.945Z,63.60
2019-02-21T22:35:37.399Z,77.53
2019-02-21T22:39:42.734Z,81.47
2019-02-21T22:43:48.102Z,74.07
2019-02-21T22:47:53.526Z,71.50
2019-02-21T22:51:58.987Z,84.27
2019-02-21T22:56:04.573Z,83.33
2019-02-21T23:00:59.528Z,80.67
2019-02-21T23:06:00.877Z,82.03
2019-02-21T23:10:06.585Z,82.80
2019-02-21T23:14:12.180Z,75.40
2019-02-21T23:18:17.589Z,80.40
2019-02-21T23:22:22.955Z,79.07
2019-02-21T23:26:28.806Z,90.53
2019-02-21T23:30:34.481Z,105.47
2019-02-21T23:34:43.026Z,109.80
2019-02-21T23:38:48.474Z,106.70
2019-02-21T23:42:53.883Z,105.70
2019-02-21T23:46:59.315Z,107.83
2019-02-21T23:51:04.664Z,80.50
2019-02-21T23:55:10.112Z,72.73
2019-02-21T23:59:16.122Z,75.60
